Time;durP1;ratioP1;P1;durP2;ratioP2;P2;SDS_P1;SDS_P2;PMS_P1;PMS_P2;Temp;Humidity;BMP_temperature;BMP_pressure;BME280_temperature;BME280_humidity;BME280_pressure;Samples;Min_cycle;Max_cycle;Signal;HPM_P1;HPM_P2
2023/03/31 00:00:45;;;;;;;17.23;4.83;;;11.20;99.90;;;;;;5042690;28;20385;-78
2023/03/31 00:03:20;;;;;;;19.63;4.03;;;11.20;99.90;;;;;;5040287;28;20218;-78
2023/03/31 00:05:52;;;;;;;15.53;4.90;;;11.10;99.90;;;;;;5046232;28;20229;-78
2023/03/31 00:08:20;;;;;;;14.17;3.80;;;11.10;99.90;;;;;;5039598;28;20205;-78
2023/03/31 00:10:47;;;;;;;13.00;3.73;;;11.10;99.90;;;;;;5040931;28;20295;-78
2023/03/31 00:13:14;;;;;;;14.53;4.03;;;11.00;99.90;;;;;;5042532;28;20194;-76
2023/03/31 00:15:41;;;;;;;8.97;3.70;;;11.00;99.90;;;;;;5042739;28;20205;-77
2023/03/31 00:18:07;;;;;;;14.83;4.03;;;11.00;99.90;;;;;;5039550;28;20669;-78
2023/03/31 00:20:36;;;;;;;17.17;4.33;;;11.00;99.90;;;;;;5042878;28;20693;-77
2023/03/31 00:23:09;;;;;;;16.37;4.27;;;11.00;99.90;;;;;;5039850;28;20202;-77
2023/03/31 00:25:40;;;;;;;8.73;4.03;;;11.00;99.90;;;;;;5039502;28;20205;-77
2023/03/31 00:28:07;;;;;;;11.27;3.97;;;11.00;99.90;;;;;;5040372;28;20279;-77
2023/03/31 00:30:34;;;;;;;19.07;4.00;;;11.00;99.90;;;;;;5023943;28;20320;-77
2023/03/31 00:33:01;;;;;;;11.30;3.97;;;11.00;99.90;;;;;;5037958;28;20217;-78
2023/03/31 00:35:28;;;;;;;14.90;4.13;;;11.00;99.90;;;;;;5045417;28;20573;-78
2023/03/31 00:37:56;;;;;;;16.50;4.63;;;11.10;99.90;;;;;;5040761;28;20231;-77
2023/03/31 00:40:23;;;;;;;18.37;3.90;;;11.00;99.90;;;;;;5042730;28;20208;-79
2023/03/31 00:42:50;;;;;;;9.80;3.17;;;11.00;99.90;;;;;;5041893;28;20295;-76
2023/03/31 00:45:22;;;;;;;13.73;3.73;;;11.10;99.90;;;;;;5040099;28;20205;-77
2023/03/31 00:48:09;;;;;;;12.40;3.90;;;11.10;99.90;;;;;;5039490;28;20705;-77
2023/03/31 00:50:55;;;;;;;13.67;4.00;;;11.10;99.90;;;;;;5040436;28;20288;-76
2023/03/31 00:53:28;;;;;;;11.43;3.13;;;11.10;99.90;;;;;;5040574;28;20297;-77
2023/03/31 00:56:01;;;;;;;16.20;3.50;;;11.10;99.90;;;;;;5029243;28;20221;-76
2023/03/31 00:58:32;;;;;;;13.77;3.97;;;11.10;99.90;;;;;;5022751;28;20217;-77
2023/03/31 01:01:02;;;;;;;12.10;3.33;;;11.10;99.90;;;;;;5041271;28;20640;-77
2023/03/31 01:03:32;;;;;;;13.20;3.27;;;11.10;99.90;;;;;;5039113;28;20690;-77
2023/03/31 01:06:11;;;;;;;16.20;3.70;;;11.20;99.90;;;;;;5043990;28;20202;-77
2023/03/31 01:08:40;;;;;;;13.27;3.67;;;11.20;99.90;;;;;;5038041;28;20292;-77
2023/03/31 01:11:10;;;;;;;11.03;3.33;;;11.20;99.90;;;;;;5039845;28;20240;-77
2023/03/31 01:13:40;;;;;;;12.53;3.77;;;11.20;99.90;;;;;;5042159;28;20285;-76
2023/03/31 01:16:06;;;;;;;11.47;3.20;;;11.20;99.90;;;;;;5023606;28;20212;-78
2023/03/31 01:18:34;;;;;;;12.40;3.77;;;11.30;99.90;;;;;;5039411;28;20230;-77
2023/03/31 01:21:37;;;;;;;10.47;3.93;;;11.40;99.90;;;;;;5039424;28;20237;-76
2023/03/31 01:24:25;;;;;;;11.23;3.40;;;11.50;99.90;;;;;;5039105;28;20295;-77
2023/03/31 01:27:01;;;;;;;12.47;3.00;;;11.40;99.90;;;;;;5039053;28;20236;-77
2023/03/31 01:30:04;;;;;;;13.50;3.70;;;11.30;99.90;;;;;;5038791;28;20241;-78
2023/03/31 01:32:42;;;;;;;13.47;4.17;;;11.40;99.90;;;;;;5039164;28;20261;-77
2023/03/31 01:35:15;;;;;;;12.37;4.30;;;11.40;99.90;;;;;;5042037;28;20205;-77
2023/03/31 01:37:55;;;;;;;9.37;4.53;;;11.40;99.90;;;;;;5039417;28;20236;-77
2023/03/31 01:40:28;;;;;;;12.67;4.50;;;11.40;99.90;;;;;;5040965;28;20197;-77
2023/03/31 01:43:04;;;;;;;13.63;5.03;;;11.40;99.90;;;;;;5039763;28;20288;-77
2023/03/31 01:45:59;;;;;;;9.03;4.80;;;11.50;99.90;;;;;;5040880;28;20289;-77
2023/03/31 01:48:53;;;;;;;10.63;5.40;;;11.50;99.90;;;;;;5043161;28;20236;-79
2023/03/31 01:51:36;;;;;;;8.30;4.80;;;11.50;99.90;;;;;;5044348;28;20251;-77
2023/03/31 01:54:06;;;;;;;15.67;5.10;;;11.40;99.90;;;;;;5043315;28;20201;-79
2023/03/31 01:56:45;;;;;;;10.63;5.10;;;11.40;99.90;;;;;;5042315;28;20654;-77
2023/03/31 01:59:35;;;;;;;8.93;4.47;;;11.50;99.90;;;;;;5043220;28;20206;-77
2023/03/31 02:02:09;;;;;;;10.87;4.30;;;11.50;99.90;;;;;;5043293;28;20293;-76
2023/03/31 02:04:55;;;;;;;15.07;5.00;;;11.40;99.90;;;;;;5042350;28;20566;-79
2023/03/31 02:07:33;;;;;;;8.77;4.20;;;11.40;99.90;;;;;;5023932;28;20206;-78
2023/03/31 02:10:05;;;;;;;10.43;3.50;;;11.40;99.90;;;;;;5043315;28;20264;-78
2023/03/31 02:12:34;;;;;;;10.90;4.13;;;11.40;99.90;;;;;;5045902;28;20209;-78
2023/03/31 02:15:04;;;;;;;11.67;4.17;;;11.30;99.90;;;;;;5045580;28;20209;-78
2023/03/31 02:17:31;;;;;;;13.40;3.73;;;11.40;99.90;;;;;;5043839;28;20241;-78
2023/03/31 02:20:05;;;;;;;9.90;3.50;;;11.40;99.90;;;;;;5027617;28;20539;-78
2023/03/31 02:22:36;;;;;;;13.77;3.77;;;11.40;99.90;;;;;;5026103;28;20259;-79
2023/03/31 02:25:09;;;;;;;11.20;2.87;;;11.40;99.90;;;;;;5042737;28;20288;-79
2023/03/31 02:27:41;;;;;;;9.10;3.00;;;11.30;99.90;;;;;;5024348;28;20292;-78
2023/03/31 02:30:10;;;;;;;11.23;3.50;;;11.30;99.90;;;;;;5025689;28;20229;-80
2023/03/31 02:32:39;;;;;;;12.77;4.57;;;11.30;99.90;;;;;;5044684;28;20705;-78
2023/03/31 02:35:11;;;;;;;10.57;3.87;;;11.30;99.90;;;;;;5044992;28;20212;-78
2023/03/31 02:37:40;;;;;;;9.80;3.63;;;11.30;99.90;;;;;;5043673;28;20258;-78
2023/03/31 02:40:20;;;;;;;10.47;3.40;;;11.30;99.90;;;;;;5042271;28;20232;-77
2023/03/31 02:42:47;;;;;;;11.77;3.03;;;11.30;99.90;;;;;;5044645;28;20259;-78
2023/03/31 02:45:53;;;;;;;9.70;3.03;;;11.30;99.90;;;;;;5041658;28;20217;-79
2023/03/31 02:48:27;;;;;;;12.87;2.80;;;11.40;99.90;;;;;;4963463;28;20254;-77
2023/03/31 02:51:09;;;;;;;15.77;3.60;;;11.30;99.90;;;;;;4960036;28;20355;-79
2023/03/31 02:54:14;;;;;;;10.63;3.60;;;11.30;99.90;;;;;;5011862;28;20263;-79
2023/03/31 02:57:18;;;;;;;13.07;3.47;;;11.30;99.90;;;;;;5040999;28;20210;-79
2023/03/31 03:00:01;;;;;;;12.20;3.37;;;11.30;99.90;;;;;;5040520;28;20213;-77
2023/03/31 03:03:11;;;;;;;14.73;3.73;;;11.30;99.90;;;;;;5041410;28;20221;-78
2023/03/31 03:05:57;;;;;;;16.70;3.77;;;11.30;99.90;;;;;;5046656;28;20216;-78
2023/03/31 03:08:27;;;;;;;10.63;3.77;;;11.30;99.90;;;;;;5040511;28;20210;-78
2023/03/31 03:11:02;;;;;;;11.57;4.00;;;11.30;99.90;;;;;;5043569;28;20233;-78
2023/03/31 03:13:50;;;;;;;18.30;4.33;;;11.30;99.90;;;;;;5041778;28;20609;-78
2023/03/31 03:16:42;;;;;;;13.73;4.50;;;11.40;99.90;;;;;;5041621;28;20288;-79
2023/03/31 03:19:16;;;;;;;12.23;5.00;;;11.30;99.90;;;;;;5041630;28;20225;-78
2023/03/31 03:21:44;;;;;;;16.87;5.53;;;11.30;99.90;;;;;;5044464;28;20254;-79
2023/03/31 03:24:13;;;;;;;14.00;4.53;;;11.10;99.90;;;;;;5041276;28;20244;-79
2023/03/31 03:26:39;;;;;;;15.53;4.60;;;11.20;99.90;;;;;;5042018;28;20642;-80
2023/03/31 03:29:07;;;;;;;11.87;4.93;;;11.30;99.90;;;;;;5043034;28;20732;-79
2023/03/31 03:31:33;;;;;;;12.50;4.60;;;11.30;99.90;;;;;;5040258;28;20293;-79
2023/03/31 03:34:00;;;;;;;16.03;4.90;;;11.20;99.90;;;;;;5044198;28;20300;-79
2023/03/31 03:36:27;;;;;;;9.70;3.90;;;11.40;99.90;;;;;;5042349;28;20213;-78
2023/03/31 03:38:54;;;;;;;10.83;4.37;;;11.30;99.90;;;;;;5024930;28;20235;-78
2023/03/31 03:41:20;;;;;;;10.07;4.37;;;11.20;99.90;;;;;;5045886;28;20252;-77
2023/03/31 03:43:47;;;;;;;11.43;3.70;;;11.30;99.90;;;;;;5043045;28;20267;-79
2023/03/31 03:46:14;;;;;;;9.10;3.70;;;11.20;99.90;;;;;;5041492;28;20312;-77
2023/03/31 03:48:41;;;;;;;9.77;3.57;;;11.20;99.90;;;;;;5040824;28;20234;-78
2023/03/31 03:51:08;;;;;;;11.50;3.77;;;11.20;99.90;;;;;;5043120;28;20232;-78
2023/03/31 03:53:34;;;;;;;8.53;3.67;;;11.20;99.90;;;;;;5031729;28;20325;-77
2023/03/31 03:56:01;;;;;;;12.20;3.43;;;11.10;99.90;;;;;;5032022;28;20214;-79
2023/03/31 03:58:28;;;;;;;8.93;3.03;;;11.20;99.90;;;;;;5031356;28;20725;-79
2023/03/31 04:00:55;;;;;;;11.53;3.03;;;11.20;99.90;;;;;;5031454;28;20241;-79
2023/03/31 04:03:22;;;;;;;9.00;2.70;;;11.20;99.90;;;;;;5031090;28;20658;-78
2023/03/31 04:05:49;;;;;;;7.87;2.70;;;11.10;99.90;;;;;;5039533;28;20667;-78
2023/03/31 04:08:17;;;;;;;6.60;2.70;;;11.10;99.90;;;;;;5040562;28;20243;-77
2023/03/31 04:10:46;;;;;;;6.47;2.73;;;11.10;99.90;;;;;;5042063;28;20707;-78
2023/03/31 04:13:12;;;;;;;9.80;2.80;;;11.10;99.90;;;;;;5037592;28;20234;-79
2023/03/31 04:15:41;;;;;;;11.17;2.60;;;11.10;99.90;;;;;;5031711;28;20289;-80
2023/03/31 04:18:21;;;;;;;6.53;2.73;;;11.20;99.90;;;;;;5039900;28;20272;-79
2023/03/31 04:21:04;;;;;;;7.67;2.70;;;11.10;99.90;;;;;;5042635;28;20205;-79
2023/03/31 04:23:45;;;;;;;16.87;3.43;;;10.90;99.90;;;;;;5039549;28;20272;-80
2023/03/31 04:26:13;;;;;;;10.07;3.03;;;11.10;99.90;;;;;;5039109;28;20296;-78
2023/03/31 04:28:45;;;;;;;6.67;2.93;;;11.00;99.90;;;;;;5041615;28;20247;-79
2023/03/31 04:31:25;;;;;;;14.23;3.40;;;11.00;99.90;;;;;;5041445;28;20225;-81
2023/03/31 04:33:53;;;;;;;10.87;3.40;;;11.00;99.90;;;;;;5041897;28;20649;-78
2023/03/31 04:36:21;;;;;;;11.00;3.27;;;10.90;99.90;;;;;;5040883;28;20267;-80
2023/03/31 04:38:53;;;;;;;16.30;4.80;;;11.00;99.90;;;;;;5041877;28;20292;-79
2023/03/31 04:41:21;;;;;;;9.03;4.03;;;11.00;99.90;;;;;;5046131;28;20259;-79
2023/03/31 04:43:48;;;;;;;14.63;4.47;;;11.00;99.90;;;;;;5040685;28;20205;-79
2023/03/31 04:46:15;;;;;;;12.37;4.07;;;11.00;99.90;;;;;;5041675;28;20262;-79
2023/03/31 04:48:42;;;;;;;11.83;4.17;;;11.00;99.90;;;;;;5038430;28;20734;-80
2023/03/31 04:51:09;;;;;;;10.77;4.10;;;11.00;99.90;;;;;;5041949;28;20223;-79
2023/03/31 04:53:36;;;;;;;12.57;4.47;;;11.00;99.90;;;;;;5041292;28;20202;-80
2023/03/31 04:56:03;;;;;;;19.13;6.07;;;11.00;99.90;;;;;;5029249;28;20214;-81
2023/03/31 04:58:30;;;;;;;19.70;5.30;;;11.00;99.90;;;;;;5031485;28;20262;-80
2023/03/31 05:00:57;;;;;;;10.27;3.87;;;11.00;99.90;;;;;;5045555;28;20201;-79
2023/03/31 05:03:25;;;;;;;12.13;4.30;;;11.00;99.90;;;;;;5040313;28;20225;-82
2023/03/31 05:05:53;;;;;;;13.47;3.90;;;10.90;99.90;;;;;;5049046;28;20220;-81
2023/03/31 05:08:20;;;;;;;11.87;4.07;;;10.90;99.90;;;;;;5043061;28;20204;-82
2023/03/31 05:10:46;;;;;;;13.47;3.63;;;10.90;99.90;;;;;;5042324;28;20218;-81
2023/03/31 05:13:13;;;;;;;9.60;3.30;;;10.90;99.90;;;;;;5024326;28;20284;-80
2023/03/31 05:15:43;;;;;;;12.03;3.67;;;10.90;99.90;;;;;;5029321;28;20722;-81
2023/03/31 05:18:10;;;;;;;11.97;3.50;;;10.90;99.90;;;;;;5040276;28;20233;-81
2023/03/31 05:20:38;;;;;;;10.43;3.60;;;10.90;99.90;;;;;;5043278;28;20204;-81
2023/03/31 05:23:05;;;;;;;11.50;3.83;;;10.90;99.90;;;;;;5042191;28;20202;-81
2023/03/31 05:25:32;;;;;;;14.53;5.20;;;10.90;99.90;;;;;;5038922;28;20243;-82
2023/03/31 05:28:00;;;;;;;12.13;4.50;;;10.80;99.90;;;;;;5026899;28;20870;-81
2023/03/31 05:30:27;;;;;;;13.47;4.80;;;11.00;99.90;;;;;;5040434;28;20310;-80
2023/03/31 05:32:55;;;;;;;13.53;5.20;;;10.80;99.90;;;;;;5041864;28;20224;-82
2023/03/31 05:35:22;;;;;;;14.53;4.70;;;10.80;99.90;;;;;;5045352;28;20205;-80
2023/03/31 05:37:49;;;;;;;12.67;5.00;;;10.90;99.90;;;;;;5043847;28;20208;-81
2023/03/31 05:40:16;;;;;;;16.87;4.70;;;10.90;99.90;;;;;;5025078;28;20607;-79
2023/03/31 05:42:43;;;;;;;13.40;4.93;;;10.80;99.90;;;;;;5040156;28;20772;-78
2023/03/31 05:45:11;;;;;;;15.73;5.57;;;10.80;99.90;;;;;;5044877;28;20280;-81
2023/03/31 05:47:41;;;;;;;17.37;5.10;;;10.80;99.90;;;;;;5039112;28;20229;-80
2023/03/31 05:50:08;;;;;;;12.07;5.20;;;10.80;99.90;;;;;;5044213;28;20260;-80
2023/03/31 05:52:37;;;;;;;18.07;5.60;;;10.80;99.90;;;;;;5025258;28;20205;-79
2023/03/31 05:55:04;;;;;;;11.80;5.30;;;10.80;99.90;;;;;;5043781;28;20212;-81
2023/03/31 05:57:31;;;;;;;15.07;4.70;;;10.80;99.90;;;;;;5043554;28;20612;-80
2023/03/31 05:59:58;;;;;;;12.73;4.90;;;10.90;99.90;;;;;;5042539;28;20241;-80
2023/03/31 06:02:25;;;;;;;15.30;5.23;;;10.80;99.90;;;;;;5043674;28;20704;-79
2023/03/31 06:04:52;;;;;;;11.27;4.80;;;10.80;99.90;;;;;;5023742;28;20324;-80
2023/03/31 06:07:21;;;;;;;15.27;5.90;;;10.90;99.90;;;;;;5042288;28;20210;-80
2023/03/31 06:09:47;;;;;;;18.67;5.10;;;10.90;99.90;;;;;;5041700;28;20297;-79
2023/03/31 06:12:15;;;;;;;15.83;4.90;;;11.00;99.90;;;;;;5041810;28;20299;-79
2023/03/31 06:14:42;;;;;;;13.03;4.30;;;10.90;99.90;;;;;;5042982;28;20717;-82
2023/03/31 06:17:08;;;;;;;10.77;4.17;;;10.90;99.90;;;;;;5039806;28;20260;-79
2023/03/31 06:19:35;;;;;;;14.33;4.50;;;10.90;99.90;;;;;;5040604;28;20205;-78
2023/03/31 06:22:02;;;;;;;16.37;4.47;;;10.90;99.90;;;;;;5044418;28;20230;-80
2023/03/31 06:24:29;;;;;;;14.20;4.60;;;10.90;99.90;;;;;;5043475;28;20683;-80
2023/03/31 06:26:56;;;;;;;15.37;4.63;;;11.10;99.90;;;;;;5041491;28;20596;-79
2023/03/31 06:29:22;;;;;;;10.87;4.23;;;11.00;99.90;;;;;;5041283;28;20297;-78
2023/03/31 06:31:49;;;;;;;16.70;5.63;;;11.00;99.90;;;;;;5042153;28;20220;-79
2023/03/31 06:34:16;;;;;;;20.80;4.57;;;11.10;99.90;;;;;;5051517;28;20244;-78
2023/03/31 06:36:46;;;;;;;15.77;3.73;;;11.10;99.90;;;;;;5045141;28;20210;-80
2023/03/31 06:39:13;;;;;;;10.50;3.70;;;11.00;99.90;;;;;;5049323;28;20240;-81
2023/03/31 06:41:40;;;;;;;11.63;4.00;;;11.10;99.90;;;;;;5044183;28;20684;-80
2023/03/31 06:44:06;;;;;;;10.93;3.30;;;11.10;99.90;;;;;;5046676;28;20202;-80
2023/03/31 06:46:33;;;;;;;8.63;3.53;;;11.10;99.90;;;;;;5045577;28;20239;-80
2023/03/31 06:49:01;;;;;;;9.40;4.43;;;11.00;99.90;;;;;;5044678;28;20214;-82
2023/03/31 06:51:28;;;;;;;10.50;3.57;;;11.10;99.90;;;;;;5042792;28;20282;-81
2023/03/31 06:53:58;;;;;;;11.13;3.33;;;11.20;99.90;;;;;;5041323;28;20194;-85
2023/03/31 06:56:26;;;;;;;9.30;3.30;;;11.10;99.90;;;;;;5026367;28;20197;-81
2023/03/31 06:58:55;;;;;;;6.97;3.50;;;11.00;99.90;;;;;;5042137;28;20237;-81
2023/03/31 07:01:22;;;;;;;7.77;3.43;;;11.20;99.90;;;;;;5042790;28;20205;-82
2023/03/31 07:03:49;;;;;;;8.13;3.13;;;11.30;99.90;;;;;;5046585;28;20724;-83
2023/03/31 07:06:16;;;;;;;9.30;2.90;;;11.30;99.90;;;;;;5045382;28;20267;-81
2023/03/31 07:08:42;;;;;;;13.57;3.20;;;11.40;99.90;;;;;;5045196;28;20251;-83
2023/03/31 07:11:10;;;;;;;9.27;2.87;;;11.40;99.90;;;;;;5032943;28;20997;-83
2023/03/31 07:13:37;;;;;;;7.83;3.17;;;11.40;99.90;;;;;;5045862;28;20202;-84
2023/03/31 07:16:36;;;;;;;9.53;2.70;;;11.40;99.90;;;;;;5049862;28;20254;-84
2023/03/31 07:19:46;;;;;;;8.17;2.80;;;11.60;99.90;;;;;;5008579;28;20234;-82
2023/03/31 07:23:10;;;;;;;6.27;2.40;;;11.40;99.90;;;;;;5010647;28;20242;-85
2023/03/31 07:25:53;;;;;;;8.00;2.90;;;11.40;99.90;;;;;;4990916;28;20202;-83
2023/03/31 07:28:34;;;;;;;5.03;1.93;;;11.40;99.90;;;;;;5017041;28;20217;-83
2023/03/31 07:31:18;;;;;;;6.67;2.20;;;11.50;99.90;;;;;;5013602;28;20608;-84
2023/03/31 07:34:08;;;;;;;8.07;2.07;;;11.60;99.90;;;;;;5041864;28;20221;-83
2023/03/31 07:36:36;;;;;;;6.30;2.20;;;11.60;99.90;;;;;;5043618;28;20217;-85
2023/03/31 07:39:37;;;;;;;9.07;1.97;;;11.70;99.90;;;;;;5032331;28;20214;-82
2023/03/31 07:42:09;;;;;;;4.93;1.80;;;11.60;99.90;;;;;;5034885;28;20216;-82
2023/03/31 07:44:58;;;;;;;5.67;2.37;;;11.60;99.90;;;;;;5048386;28;20197;-82
2023/03/31 07:47:34;;;;;;;5.00;2.23;;;11.40;99.90;;;;;;5033781;28;20304;-80
2023/03/31 07:50:50;;;;;;;;;;;;;;;;;;;;;
2023/03/31 07:53:18;;;;;;;5.27;1.80;;;11.60;99.90;;;;;;5043857;28;20201;-82
2023/03/31 07:55:53;;;;;;;5.43;1.60;;;11.80;99.90;;;;;;5029939;28;20204;-84
2023/03/31 07:58:59;;;;;;;3.47;1.80;;;11.60;99.90;;;;;;5029953;28;20206;-84
2023/03/31 08:01:50;;;;;;;;;;;;;;;;;;;;;
2023/03/31 08:04:34;;;;;;;5.80;1.73;;;11.70;99.90;;;;;;5034201;28;20473;-81
2023/03/31 08:07:01;;;;;;;9.17;2.17;;;11.60;99.90;;;;;;5030030;28;20275;-82
2023/03/31 08:09:30;;;;;;;4.10;1.70;;;11.80;99.90;;;;;;5023371;28;20244;-82
2023/03/31 08:11:56;;;;;;;6.03;1.83;;;11.80;99.90;;;;;;5028559;28;20291;-84
2023/03/31 08:14:23;;;;;;;5.03;2.17;;;11.80;99.90;;;;;;5012591;28;20294;-83
2023/03/31 08:17:05;;;;;;;6.63;1.77;;;11.80;99.90;;;;;;5029718;28;20692;-82
2023/03/31 08:19:32;;;;;;;3.90;1.83;;;11.70;99.90;;;;;;5045726;28;20692;-82
2023/03/31 08:21:59;;;;;;;4.77;1.70;;;11.90;99.90;;;;;;5031367;28;20292;-82
2023/03/31 08:24:26;;;;;;;5.33;1.57;;;11.60;99.90;;;;;;5042897;28;20263;-84
2023/03/31 08:26:53;;;;;;;6.33;2.17;;;11.60;99.90;;;;;;5043389;28;20202;-82
2023/03/31 08:29:20;;;;;;;6.10;1.53;;;11.80;99.90;;;;;;5030090;28;20293;-84
2023/03/31 08:31:46;;;;;;;8.17;1.80;;;11.80;99.90;;;;;;5022076;28;20252;-84
2023/03/31 08:34:16;;;;;;;5.67;1.40;;;11.80;99.90;;;;;;5031023;28;20205;-81
2023/03/31 08:36:43;;;;;;;7.97;2.40;;;11.80;99.90;;;;;;5051370;28;20189;-81
2023/03/31 08:39:10;;;;;;;6.87;2.13;;;12.20;99.90;;;;;;5054667;28;20239;-81
2023/03/31 08:42:06;;;;;;;3.43;1.43;;;12.00;99.90;;;;;;5052335;28;20229;-81
2023/03/31 08:44:43;;;;;;;2.83;1.43;;;12.00;99.90;;;;;;5052181;28;20201;-81
2023/03/31 08:47:17;;;;;;;7.00;1.87;;;12.00;99.90;;;;;;5053028;28;20731;-82
2023/03/31 08:49:58;;;;;;;5.03;1.30;;;12.00;99.90;;;;;;5053060;28;20201;-82
2023/03/31 08:52:38;;;;;;;4.50;1.70;;;12.00;99.90;;;;;;5033153;28;20711;-83
2023/03/31 08:55:11;;;;;;;5.83;2.30;;;12.00;99.90;;;;;;5027279;28;20226;-80
2023/03/31 08:57:42;;;;;;;3.20;1.70;;;12.00;99.90;;;;;;5047704;28;20571;-83
2023/03/31 09:00:17;;;;;;;4.60;1.87;;;12.10;99.90;;;;;;5046030;28;20197;-82
2023/03/31 09:03:06;;;;;;;23.97;3.93;;;12.10;99.90;;;;;;5049627;28;20280;-83
2023/03/31 09:05:48;;;;;;;4.53;2.10;;;12.10;99.90;;;;;;5051906;28;20663;-83
2023/03/31 09:08:41;;;;;;;8.23;1.97;;;12.10;99.90;;;;;;5038349;28;20628;-82
2023/03/31 09:11:30;;;;;;;7.47;2.30;;;12.10;99.90;;;;;;5045795;28;20271;-83
2023/03/31 09:14:21;;;;;;;8.43;2.00;;;12.00;99.90;;;;;;5046906;28;20528;-83
2023/03/31 09:17:23;;;;;;;5.57;1.90;;;12.00;99.90;;;;;;5047780;28;20276;-82
2023/03/31 09:19:55;;;;;;;5.90;2.30;;;12.00;99.90;;;;;;5055148;28;20211;-83
2023/03/31 09:22:30;;;;;;;5.07;2.00;;;12.20;99.90;;;;;;5044407;28;20661;-82
2023/03/31 09:25:04;;;;;;;4.10;2.20;;;11.90;99.90;;;;;;5046987;28;20586;-81
2023/03/31 09:27:36;;;;;;;5.67;2.47;;;11.80;99.90;;;;;;5048392;28;20224;-82
2023/03/31 09:30:19;;;;;;;8.43;3.10;;;11.80;99.90;;;;;;5050449;28;20226;-83
2023/03/31 09:32:58;;;;;;;9.13;3.63;;;11.90;99.90;;;;;;5046169;28;20240;-83
2023/03/31 09:35:25;;;;;;;10.20;3.17;;;11.90;99.90;;;;;;5032891;28;20677;-82
2023/03/31 09:37:53;;;;;;;9.13;3.40;;;12.30;99.90;;;;;;5034715;28;20284;-81
2023/03/31 09:40:23;;;;;;;10.90;3.37;;;12.00;99.90;;;;;;5048784;28;20243;-82
2023/03/31 09:43:23;;;;;;;10.13;3.73;;;11.90;99.90;;;;;;5049857;28;20600;-82
2023/03/31 09:45:51;;;;;;;16.57;4.00;;;12.10;99.90;;;;;;5048103;28;20288;-84
2023/03/31 09:48:41;;;;;;;15.87;4.07;;;12.50;99.90;;;;;;5028556;28;20233;-83
2023/03/31 09:51:17;;;;;;;17.37;3.90;;;12.30;99.90;;;;;;5045637;28;20413;-84
2023/03/31 09:54:32;;;;;;;13.07;4.30;;;12.40;99.90;;;;;;5043694;28;20204;-84
2023/03/31 09:56:59;;;;;;;16.57;3.57;;;12.50;99.90;;;;;;4987333;28;20614;-82
2023/03/31 09:59:34;;;;;;;15.53;4.30;;;12.60;99.90;;;;;;5050018;28;20198;-81
2023/03/31 10:02:22;;;;;;;17.53;4.40;;;12.70;99.90;;;;;;5041481;28;20232;-80
2023/03/31 10:04:51;;;;;;;14.60;4.20;;;12.80;99.90;;;;;;5045700;28;20226;-81
2023/03/31 10:07:23;;;;;;;19.23;5.57;;;12.90;99.90;;;;;;5048101;28;20252;-81
2023/03/31 10:09:53;;;;;;;14.33;4.10;;;13.10;99.90;;;;;;5044379;28;20202;-79
2023/03/31 10:12:24;;;;;;;12.63;3.90;;;13.40;99.90;;;;;;5030293;28;20284;-80
2023/03/31 10:14:53;;;;;;;16.90;4.37;;;13.70;99.90;;;;;;5045674;28;20290;-82
2023/03/31 10:17:23;;;;;;;17.97;4.50;;;13.60;99.90;;;;;;5046480;28;20233;-82
2023/03/31 10:19:52;;;;;;;12.13;3.97;;;13.10;99.90;;;;;;5034229;28;20197;-81
2023/03/31 10:22:22;;;;;;;16.60;3.50;;;13.60;99.90;;;;;;5032855;28;20284;-81
2023/03/31 10:24:50;;;;;;;15.73;4.33;;;13.60;99.90;;;;;;5024697;28;20637;-80
2023/03/31 10:27:26;;;;;;;18.33;4.53;;;13.50;99.90;;;;;;5029201;28;20198;-81
2023/03/31 10:29:55;;;;;;;13.73;3.70;;;13.50;99.90;;;;;;5043793;28;20201;-82
2023/03/31 10:32:31;;;;;;;14.93;4.10;;;13.50;99.90;;;;;;5047371;28;20264;-77
2023/03/31 10:35:30;;;;;;;13.90;4.20;;;13.60;99.90;;;;;;5029415;28;20612;-82
2023/03/31 10:38:15;;;;;;;15.97;4.13;;;13.60;99.90;;;;;;5044764;28;20193;-81
2023/03/31 10:40:56;;;;;;;16.27;4.73;;;13.70;99.90;;;;;;5031189;28;20205;-80
2023/03/31 10:43:36;;;;;;;15.77;3.97;;;14.00;99.90;;;;;;5047678;28;20198;-81
2023/03/31 10:46:03;;;;;;;16.77;4.40;;;13.80;99.90;;;;;;5050896;28;20609;-80
2023/03/31 10:48:40;;;;;;;15.40;3.93;;;13.80;99.90;;;;;;5050370;28;20213;-81
2023/03/31 10:51:47;;;;;;;17.33;4.00;;;14.00;99.90;;;;;;5046419;28;20303;-81
2023/03/31 10:54:13;;;;;;;17.17;3.87;;;14.20;99.90;;;;;;4988678;28;20241;-81
2023/03/31 10:56:50;;;;;;;17.50;3.60;;;14.30;99.90;;;;;;5043971;28;20300;-80
2023/03/31 10:59:45;;;;;;;17.43;3.27;;;14.40;99.90;;;;;;5043665;28;20219;-80
2023/03/31 11:02:34;;;;;;;10.60;3.00;;;14.40;99.90;;;;;;5042377;28;20618;-80
2023/03/31 11:05:41;;;;;;;12.00;3.97;;;14.40;99.90;;;;;;5025378;28;20631;-81
2023/03/31 11:08:17;;;;;;;9.43;3.40;;;14.50;99.90;;;;;;5028231;28;20235;-81
2023/03/31 11:10:51;;;;;;;16.58;4.10;;;14.70;99.90;;;;;;5045165;28;20224;-80
2023/03/31 11:13:22;;;;;;;13.70;3.07;;;14.50;99.90;;;;;;5043928;28;20222;-80
2023/03/31 11:15:49;;;;;;;16.73;3.20;;;14.90;99.90;;;;;;5045800;28;20300;-79
2023/03/31 11:18:31;;;;;;;18.17;3.20;;;14.40;99.90;;;;;;5023088;28;20486;-81
2023/03/31 11:21:20;;;;;;;14.68;2.95;;;14.80;99.90;;;;;;5024424;28;20655;-81
2023/03/31 11:23:59;;;;;;;10.20;3.27;;;14.70;99.90;;;;;;5022189;28;20222;-82
2023/03/31 11:26:47;;;;;;;15.43;3.53;;;14.70;99.90;;;;;;5020695;28;20210;-80
2023/03/31 11:29:39;;;;;;;14.85;3.22;;;14.80;99.90;;;;;;5020757;28;20294;-81
2023/03/31 11:32:15;;;;;;;11.57;3.42;;;14.90;99.90;;;;;;5023874;28;20237;-80
2023/03/31 11:34:52;;;;;;;13.10;2.92;;;15.00;99.90;;;;;;5019977;28;20301;-80
2023/03/31 11:37:34;;;;;;;14.48;4.35;;;15.00;99.90;;;;;;5024794;28;20638;-81
2023/03/31 11:40:10;;;;;;;11.00;2.60;;;14.90;99.90;;;;;;5022487;28;20206;-80
2023/03/31 11:43:01;;;;;;;13.00;2.90;;;15.00;99.90;;;;;;5021374;28;20206;-79
2023/03/31 11:45:33;;;;;;;12.68;3.58;;;15.10;99.90;;;;;;5012712;28;20666;-80
2023/03/31 11:48:06;;;;;;;9.20;2.63;;;15.20;99.90;;;;;;5027380;28;20221;-79
2023/03/31 11:50:38;;;;;;;11.93;2.85;;;15.20;99.90;;;;;;5026257;28;20216;-80
2023/03/31 11:53:19;;;;;;;10.18;3.28;;;15.30;99.90;;;;;;5029279;28;20312;-79
2023/03/31 11:55:50;;;;;;;12.73;3.13;;;15.20;99.90;;;;;;5020688;28;20269;-80
2023/03/31 11:58:55;;;;;;;11.70;3.00;;;15.20;99.90;;;;;;5023872;28;20230;-80
2023/03/31 12:01:36;;;;;;;10.20;2.60;;;15.10;99.90;;;;;;5021902;28;20216;-81
2023/03/31 12:04:18;;;;;;;12.40;3.20;;;15.10;99.90;;;;;;5021484;28;20214;-80
2023/03/31 12:06:48;;;;;;;12.55;2.72;;;15.10;99.90;;;;;;5026975;28;20296;-78
2023/03/31 12:09:35;;;;;;;10.02;2.72;;;15.10;99.90;;;;;;5024322;28;20210;-80
2023/03/31 12:12:15;;;;;;;10.02;2.67;;;15.00;99.90;;;;;;5021027;28;20232;-79
2023/03/31 12:14:51;;;;;;;12.45;2.97;;;15.10;99.90;;;;;;5023542;28;20279;-79
2023/03/31 12:17:24;;;;;;;14.10;2.90;;;15.00;99.90;;;;;;5025987;28;20804;-79
2023/03/31 12:19:55;;;;;;;9.05;2.78;;;14.80;99.90;;;;;;5041977;28;20206;-78
2023/03/31 12:22:42;;;;;;;10.35;3.03;;;14.70;99.90;;;;;;5044511;28;20213;-78
2023/03/31 12:25:21;;;;;;;9.65;3.05;;;14.60;99.90;;;;;;5057668;28;20246;-79
2023/03/31 12:27:50;;;;;;;8.63;2.22;;;14.80;99.90;;;;;;5048258;28;20641;-77
2023/03/31 12:30:24;;;;;;;10.20;3.47;;;14.70;99.90;;;;;;5048858;28;20833;-78
2023/03/31 12:33:00;;;;;;;8.30;2.47;;;14.90;99.90;;;;;;5045921;28;20248;-78
2023/03/31 12:35:56;;;;;;;7.53;2.10;;;15.00;99.90;;;;;;5044567;28;20197;-80
2023/03/31 12:38:40;;;;;;;12.02;2.90;;;14.80;99.90;;;;;;5045325;28;20283;-79
2023/03/31 12:41:07;;;;;;;11.15;2.80;;;14.60;99.90;;;;;;5039562;28;20237;-78
2023/03/31 12:43:54;;;;;;;11.77;2.63;;;14.50;99.90;;;;;;5041848;28;20197;-79
2023/03/31 12:46:39;;;;;;;11.40;3.10;;;14.30;99.90;;;;;;5041420;28;20241;-80
2023/03/31 12:49:26;;;;;;;13.77;3.10;;;14.20;99.90;;;;;;5038968;28;20617;-80
2023/03/31 12:52:15;;;;;;;11.67;2.30;;;14.30;99.90;;;;;;5023715;28;20316;-78
2023/03/31 12:55:20;;;;;;;12.20;2.67;;;14.40;99.90;;;;;;5041445;28;20657;-79
2023/03/31 12:57:47;;;;;;;10.63;3.00;;;14.50;99.90;;;;;;5022727;28;20243;-82
2023/03/31 13:00:26;;;;;;;11.57;2.92;;;14.50;99.90;;;;;;5040367;28;20565;-78
2023/03/31 13:03:32;;;;;;;12.43;3.03;;;14.60;99.90;;;;;;5039694;28;20253;-80
2023/03/31 13:05:59;;;;;;;10.23;2.70;;;14.50;99.90;;;;;;5043623;28;20303;-79
2023/03/31 13:08:49;;;;;;;13.37;3.13;;;14.40;99.90;;;;;;5041528;28;20205;-81
2023/03/31 13:11:19;;;;;;;13.93;2.93;;;14.30;99.90;;;;;;5038188;28;20261;-81
2023/03/31 13:13:59;;;;;;;14.13;3.20;;;14.10;99.90;;;;;;5041520;28;20226;-82
2023/03/31 13:16:31;;;;;;;16.53;3.67;;;13.90;99.90;;;;;;5039816;28;20232;-81
2023/03/31 13:18:59;;;;;;;10.13;3.07;;;13.70;99.90;;;;;;5041673;28;20244;-80
2023/03/31 13:21:26;;;;;;;14.07;3.20;;;13.50;99.90;;;;;;5028543;28;20587;-82
2023/03/31 13:24:00;;;;;;;16.60;3.20;;;13.50;99.90;;;;;;5040391;28;20263;-80